»·PEaware :: N301PW 43CL-KBAM

N301PW :: 43CL-KBAM

FLIGHT INFORMATION

Flight Status: Arrived
Operator: Privately registered:
United States
More flights under this callsign
Pilot: Stacy K. (11621)
Aircraft: DEHAVILLAND DASH 8 200
(DH8B)
More flights by this aircraft type
Origin: 43CL Dick Dale Skyranch
United States
Destination: KBAM Battle Mountain
United States
More flights between these airports :: More routes between these airports
Route: HEC BTY OAL BAM
File this flight plan on PilotEdge
Remarks:
Altitude:
(Current/Filed)
10,500ft
Speed:
(Current/Filed)
230kts
Departed: 20-Apr-18 06:50 PM
Arrived: 20-Apr-18 09:00 PM
Distance/Time
Traveled:
386nm/2:10
Distance/Time
To Go:
Arrived

Flight Plot

Page will automatically refresh every two minutes.

Flight plan parsing failed; only flown route is shown


Map Options




Map Legend


Flown Route
Filed Route
Departure Airport
Arrival Airport
Navaid (VOR, NDB)
Fix

Horizontal Profiles

Position Reports

Time Latitude Longitude Heading Altitude Ground
Speed
20-Apr-18 18:48 34.203507 -115.994045 313 1799ft 0kts
20-Apr-18 18:49 34.212485 -116.004967 318 1817ft 145kts
20-Apr-18 18:50 34.232198 -116.022007 332 3990ft 79kts
20-Apr-18 18:51 34.254946 -116.036940 326 5451ft 113kts
20-Apr-18 18:52 34.291404 -116.064664 328 6783ft 168kts
20-Apr-18 18:53 34.332077 -116.096341 327 8590ft 178kts
20-Apr-18 18:54 34.374422 -116.129592 329 10356ft 186kts
20-Apr-18 18:55 34.425506 -116.169528 328 10517ft 241kts
20-Apr-18 18:56 34.483876 -116.215381 328 10521ft 254kts
20-Apr-18 18:57 34.543592 -116.262410 328 10524ft 257kts
20-Apr-18 18:58 34.603547 -116.309712 328 10520ft 257kts
20-Apr-18 18:59 34.661617 -116.355601 328 10515ft 258kts
20-Apr-18 19:00 34.721945 -116.403362 328 10495ft 258kts
20-Apr-18 19:01 34.767318 -116.439315 328 10491ft 257kts
20-Apr-18 19:02 34.834479 -116.465668 351 10484ft 256kts
20-Apr-18 19:03 34.905308 -116.477448 353 10459ft 257kts
20-Apr-18 19:04 34.976176 -116.487696 353 10458ft 257kts
20-Apr-18 19:05 35.047005 -116.497645 353 10464ft 256kts
20-Apr-18 19:06 35.118069 -116.507590 353 10470ft 256kts
20-Apr-18 19:07 35.188761 -116.517536 353 10471ft 256kts
20-Apr-18 19:08 35.259504 -116.527378 353 10470ft 256kts
20-Apr-18 19:09 35.330398 -116.537369 353 10476ft 257kts
20-Apr-18 19:10 35.401659 -116.547350 353 10480ft 257kts
20-Apr-18 19:11 35.472665 -116.557345 353 10476ft 256kts
20-Apr-18 19:12 35.543556 -116.567287 353 10477ft 256kts
20-Apr-18 19:13 35.614473 -116.577350 353 10477ft 257kts
20-Apr-18 19:14 35.685437 -116.587356 353 10475ft 257kts
20-Apr-18 19:15 35.755659 -116.597355 353 10479ft 248kts
20-Apr-18 19:16 35.822028 -116.606818 353 10483ft 234kts
20-Apr-18 19:17 35.886161 -116.615896 353 10496ft 230kts
20-Apr-18 19:18 35.949833 -116.624992 353 10494ft 230kts
20-Apr-18 19:19 36.013312 -116.634057 354 10488ft 229kts
20-Apr-18 19:20 36.076788 -116.643140 353 10497ft 230kts
20-Apr-18 19:21 36.140663 -116.652222 353 10499ft 230kts
20-Apr-18 19:22 36.204213 -116.661350 353 10493ft 230kts
20-Apr-18 19:23 36.267809 -116.670513 354 10494ft 230kts
20-Apr-18 19:24 36.331582 -116.679671 353 10499ft 231kts
20-Apr-18 19:25 36.395481 -116.688884 353 10498ft 231kts
20-Apr-18 19:26 36.459436 -116.698124 353 10499ft 231kts
20-Apr-18 19:27 36.523449 -116.707398 353 10494ft 231kts
20-Apr-18 19:28 36.587361 -116.716672 353 10498ft 231kts
20-Apr-18 19:29 36.651488 -116.725970 353 10504ft 231kts
20-Apr-18 19:30 36.715374 -116.735251 353 10510ft 231kts
20-Apr-18 19:31 36.779329 -116.744590 352 10512ft 231kts
20-Apr-18 19:32 36.842466 -116.761020 348 10503ft 233kts
20-Apr-18 19:33 36.905982 -116.778298 348 10505ft 232kts
20-Apr-18 19:34 36.969294 -116.795108 348 10512ft 232kts
20-Apr-18 19:35 37.032486 -116.811886 348 10520ft 232kts
20-Apr-18 19:36 37.095947 -116.828656 348 10527ft 233kts
20-Apr-18 19:37 37.159353 -116.845462 348 10535ft 233kts
20-Apr-18 19:38 37.222685 -116.862233 348 10546ft 232kts
20-Apr-18 19:39 37.286018 -116.879027 348 10554ft 232kts
20-Apr-18 19:40 37.349324 -116.895910 348 10558ft 231kts
20-Apr-18 19:41 37.412393 -116.912712 348 10581ft 232kts
20-Apr-18 19:42 37.476658 -116.929894 348 10594ft 243kts
20-Apr-18 19:43 37.544371 -116.948059 348 10589ft 252kts
20-Apr-18 19:44 37.614585 -116.965558 351 8855ft 247kts
20-Apr-18 19:45 37.680379 -116.977025 352 7224ft 225kts
20-Apr-18 19:46 37.737788 -116.986804 352 7120ft 206kts
20-Apr-18 19:47 37.795837 -116.996736 352 7124ft 214kts
20-Apr-18 19:48 37.855663 -117.006890 352 7122ft 219kts
20-Apr-18 19:49 37.916358 -117.017018 351 7127ft 220kts
20-Apr-18 19:50 37.968407 -117.025579 346 7101ft 145kts
20-Apr-18 19:51 37.996437 -117.042434 302 6810ft 126kts
20-Apr-18 19:52 38.022260 -117.077812 340 5939ft 124kts
20-Apr-18 19:53 38.047692 -117.085954 344 5432ft 62kts
20-Apr-18 19:54 38.055951 -117.088762 345 5432ft 19kts
20-Apr-18 19:55 38.057472 -117.091745 214 5432ft 7kts
20-Apr-18 19:56 38.053691 -117.092102 167 5432ft 0kts
20-Apr-18 19:57 38.053691 -117.092102 167 5432ft 0kts
20-Apr-18 19:58 38.053691 -117.092102 167 5432ft 0kts
20-Apr-18 19:59 38.053691 -117.092102 167 5432ft 0kts
20-Apr-18 20:00 38.053691 -117.092102 167 5432ft 0kts
20-Apr-18 20:18 38.315989 -117.563170 306 12498ft 256kts
20-Apr-18 20:19 38.331932 -117.592979 306 12497ft 256kts
20-Apr-18 20:20 38.353815 -117.633974 306 12494ft 257kts
20-Apr-18 20:21 38.394073 -117.709418 306 12493ft 257kts
20-Apr-18 20:22 38.434395 -117.785164 306 12493ft 258kts
20-Apr-18 20:23 38.474589 -117.861085 305 12492ft 258kts
20-Apr-18 20:24 38.514580 -117.936876 305 12490ft 257kts
20-Apr-18 20:25 38.555595 -118.011857 317 12483ft 256kts
20-Apr-18 20:26 38.621864 -118.010228 22 12504ft 257kts
20-Apr-18 20:27 38.686702 -117.970793 22 12499ft 257kts
20-Apr-18 20:28 38.752181 -117.933382 21 12497ft 257kts
20-Apr-18 20:29 38.817942 -117.897200 20 12495ft 257kts
20-Apr-18 20:30 38.883660 -117.861221 21 12493ft 256kts
20-Apr-18 20:31 38.949395 -117.825226 20 12493ft 257kts
20-Apr-18 20:32 39.015257 -117.789983 20 12498ft 257kts
20-Apr-18 20:33 39.081155 -117.754286 20 12500ft 256kts
20-Apr-18 20:34 39.146955 -117.718028 21 12502ft 257kts
20-Apr-18 20:35 39.212979 -117.682005 20 12505ft 258kts
20-Apr-18 20:36 39.279160 -117.646123 21 12496ft 257kts
20-Apr-18 20:37 39.344937 -117.609134 21 12501ft 257kts
20-Apr-18 20:38 39.399793 -117.578862 20 12498ft 257kts
20-Apr-18 20:39 39.465625 -117.542893 20 12491ft 256kts
20-Apr-18 20:40 39.542217 -117.500718 21 12489ft 256kts
20-Apr-18 20:41 39.608134 -117.464187 20 12492ft 257kts
20-Apr-18 20:42 39.673864 -117.427711 21 12500ft 257kts
20-Apr-18 20:43 39.739609 -117.391083 20 12484ft 257kts
20-Apr-18 20:44 39.805135 -117.354269 21 12492ft 256kts
20-Apr-18 20:45 39.859898 -117.323694 21 12494ft 257kts
20-Apr-18 20:46 39.925562 -117.287059 21 12494ft 256kts
20-Apr-18 20:47 39.991175 -117.250476 20 12494ft 257kts
20-Apr-18 20:48 40.059870 -117.228257 3 12496ft 254kts
20-Apr-18 20:49 40.130617 -117.221173 2 12493ft 255kts
20-Apr-18 20:50 40.201748 -117.214290 2 12189ft 260kts
20-Apr-18 20:51 40.270905 -117.207559 2 11236ft 243kts
20-Apr-18 20:52 40.337790 -117.200720 1 10290ft 239kts
20-Apr-18 20:53 40.404306 -117.192747 7 9343ft 239kts
20-Apr-18 20:54 40.463958 -117.159006 46 8423ft 241kts
20-Apr-18 20:55 40.498960 -117.083551 62 7412ft 245kts
20-Apr-18 20:56 40.526029 -117.002027 66 6488ft 217kts
20-Apr-18 20:57 40.551697 -116.947532 43 5541ft 155kts
20-Apr-18 20:58 40.579872 -116.906159 49 4763ft 146kts
20-Apr-18 20:59 40.599330 -116.876847 50 4537ft 13kts
20-Apr-18 21:00 40.602559 -116.874376 5 4537ft 14kts
20-Apr-18 21:01 40.606284 -116.873429 358 4537ft 4kts
20-Apr-18 21:02 40.606502 -116.873366 90 4537ft 0kts
20-Apr-18 21:03 40.606502 -116.873366 90 4537ft 0kts
20-Apr-18 21:04 40.606502 -116.873366 90 4537ft 0kts
20-Apr-18 21:05 40.606502 -116.873366 90 4537ft 0kts
20-Apr-18 21:06 40.606502 -116.873366 90 4537ft 0kts
20-Apr-18 21:07 40.606502 -116.873366 90 4537ft 0kts
20-Apr-18 21:08 40.606502 -116.873366 90 4537ft 0kts

Navigation Log

Ident Type
Flight plan parsing failed, navigation log unavailable